Holly Ann — WDE9094 — position and weather

sailwx.info

Track history (hours):
 
Tides and Currents Weather Stations Pressure Air Temp Water Temp Dewpoint Dewpoint Depression Visibility Wind Speed Wind Dir Waves Ship Positions

Holly Ann

Owner: Manke Tug and Barge Co., Inc., Shelton, WA. More information available from US FCC via Universal Licensing System and Coast Guard Vessel Documentation Center.

Last reported at 2017-Feb-23 09:33 UTC. Time now 2017-Feb-23 16:19 UTC.
Position N 47°08' W 122°41'.

; draft 4.5 m.

Type: Towing. MMSI: 367413350.

Date/timePositionNaut miles runAvg speedWind from/ knotsBaromVisibWave heightAir tempDewpointWater temp
2017-Feb-23 09:33N 47°08' W 122°41'8 7.6
2017-Feb-23 08:33N 47°14' W 122°35'10 9.9
2017-Feb-23 07:33N 47°24' W 122°32'8 8.3
2017-Feb-23 06:33N 47°32' W 122°28'5 5.3
2017-Feb-23 05:33N 47°34' W 122°21'0 0.0
2017-Feb-23 04:33N 47°34' W 122°21'0 0.0
2017-Feb-23 03:33N 47°34' W 122°21'0 0.0
2017-Feb-23 02:34N 47°34' W 122°21'0 0.0
2017-Feb-23 01:33N 47°34' W 122°21'0 0.0
2017-Feb-23 00:33N 47°34' W 122°21'0 0.0
2017-Feb-22 23:33N 47°34' W 122°21'0 0.0
2017-Feb-22 22:33N 47°34' W 122°21'0 0.0
2017-Feb-22 21:34N 47°34' W 122°21'1 1.2
2017-Feb-22 20:33N 47°35' W 122°21'1 1.2
2017-Feb-22 19:33N 47°34' W 122°21'0 0.0
2017-Feb-22 18:33N 47°34' W 122°21'0 0.0
2017-Feb-22 17:33N 47°34' W 122°21'0 0.0
2017-Feb-22 16:33N 47°34' W 122°21'0 0.0
2017-Feb-22 15:33N 47°34' W 122°21'0 0.0
2017-Feb-22 14:33N 47°34' W 122°21'0 0.0
2017-Feb-22 13:34N 47°34' W 122°21'0 0.0
2017-Feb-22 12:33N 47°34' W 122°21'0 0.0
2017-Feb-22 11:33N 47°34' W 122°21'0 0.0
2017-Feb-22 10:34N 47°34' W 122°21'0 0.0
2017-Feb-22 09:33N 47°34' W 122°21'0 0.0
2017-Feb-22 08:34N 47°34' W 122°21'0 0.0
2017-Feb-22 07:33N 47°34' W 122°21'2 1.8
2017-Feb-22 06:33N 47°36' W 122°22'3 2.8
2017-Feb-22 05:33N 47°35' W 122°26'5 5.4
2017-Feb-22 04:33N 47°29' W 122°24'5 5.4
2017-Feb-22 03:33N 47°24' W 122°21'5 4.6
2017-Feb-22 02:33N 47°20' W 122°25'4 4.2
2017-Feb-22 01:34N 47°19' W 122°30'5 4.6
2017-Feb-22 00:33N 47°15' W 122°34'10 0.6
2017-Feb-21 07:18N 47°11' W 122°48'1 1.9
2017-Feb-21 06:33N 47°10' W 122°47'7 5.7
2017-Feb-21 05:20N 47°12' W 122°37'6 7.5
2017-Feb-21 04:33N 47°17' W 122°33'7 6.7
2017-Feb-21 03:33N 47°24' W 122°32'6 6.3
2017-Feb-21 02:33N 47°30' W 122°30'6 6.3
2017-Feb-21 01:33N 47°35' W 122°25'4 3.7
2017-Feb-21 00:33N 47°33' W 122°21'0 0.0
2017-Feb-20 23:33N 47°33' W 122°21'0 0.0
2017-Feb-20 22:34N 47°33' W 122°21'0 0.0
2017-Feb-20 21:33N 47°33' W 122°21'0 0.0
2017-Feb-20 20:33N 47°33' W 122°21'0 0.0
2017-Feb-20 19:33N 47°33' W 122°21'0 0.0
2017-Feb-20 18:33N 47°33' W 122°21'0 0.0
2017-Feb-20 17:33N 47°33' W 122°21'0 0.0
2017-Feb-20 16:33N 47°33' W 122°21'2 1.7
2017-Feb-20 15:33N 47°35' W 122°22'5 5.2
2017-Feb-20 14:33N 47°32' W 122°28'8 8.1
2017-Feb-20 13:33N 47°24' W 122°32'8 8.0
2017-Feb-20 12:33N 47°16' W 122°33'  
2017-Feb-17 13:33N 47°12' W 122°37'7 7.5
2017-Feb-17 12:33N 47°20' W 122°33'6 6.4
2017-Feb-17 11:33N 47°22' W 122°24'5 5.5
2017-Feb-17 10:33N 47°27' W 122°25'6 6.4
2017-Feb-17 09:33N 47°34' W 122°27'6 6.1
2017-Feb-17 08:33N 47°40' W 122°28'5 5.5
2017-Feb-17 07:34N 47°45' W 122°26'6 6.1
2017-Feb-17 06:33N 47°51' W 122°24'7 7.2
2017-Feb-17 05:33N 47°57' W 122°19'6 5.8
2017-Feb-17 04:28N 48°01' W 122°11'0 0.0
2017-Feb-17 01:26N 48°01' W 122°11'0 0.0
2017-Feb-17 00:33N 48°01' W 122°11'0 0.0
2017-Feb-16 23:32N 48°01' W 122°11'0 0.0
2017-Feb-16 22:33N 48°01' W 122°11'0 0.0
2017-Feb-16 21:32N 48°01' W 122°11'0 0.0
2017-Feb-16 20:33N 48°01' W 122°11'0 0.0
2017-Feb-16 19:33N 48°01' W 122°11'0 0.0
2017-Feb-16 18:14N 48°01' W 122°11'0 0.0
2017-Feb-16 17:14N 48°01' W 122°11'0 0.1
2017-Feb-16 16:33N 48°01' W 122°11'4 3.9
2017-Feb-16 15:33N 47°58' W 122°16'3 3.2
2017-Feb-16 14:33N 47°57' W 122°20'5 5.1
2017-Feb-16 13:33N 47°52' W 122°22'6 6.1
2017-Feb-16 12:33N 47°47' W 122°26'7 7.0
2017-Feb-16 11:33N 47°40' W 122°27'7 7.3
2017-Feb-16 10:33N 47°32' W 122°27'8 8.0
2017-Feb-16 09:33N 47°25' W 122°32'9 8.7
2017-Feb-16 08:33N 47°16' W 122°33'  
Track history (hours):
 
Tides and Currents Weather Stations Pressure Air Temp Water Temp Dewpoint Dewpoint Depression Visibility Wind Speed Wind Dir Waves Ship Positions

Holly Ann

Owner: Manke Tug and Barge Co., Inc., Shelton, WA. More information available from US FCC via Universal Licensing System and Coast Guard Vessel Documentation Center.

Last reported at 2017-Feb-23 09:33 UTC. Time now 2017-Feb-23 16:19 UTC.
Position N 47°08' W 122°41'.

; draft 4.5 m.

Type: Towing. MMSI: 367413350.

Date/timePositionNaut miles runAvg speedWind from/ knotsBaromVisibWave heightAir tempDewpointWater temp
2017-Feb-23 09:33N 47°08' W 122°41'8 7.6
2017-Feb-23 08:33N 47°14' W 122°35'10 9.9
2017-Feb-23 07:33N 47°24' W 122°32'8 8.3
2017-Feb-23 06:33N 47°32' W 122°28'5 5.3
2017-Feb-23 05:33N 47°34' W 122°21'0 0.0
2017-Feb-23 04:33N 47°34' W 122°21'0 0.0
2017-Feb-23 03:33N 47°34' W 122°21'0 0.0
2017-Feb-23 02:34N 47°34' W 122°21'0 0.0
2017-Feb-23 01:33N 47°34' W 122°21'0 0.0
2017-Feb-23 00:33N 47°34' W 122°21'0 0.0
2017-Feb-22 23:33N 47°34' W 122°21'0 0.0
2017-Feb-22 22:33N 47°34' W 122°21'0 0.0
2017-Feb-22 21:34N 47°34' W 122°21'1 1.2
2017-Feb-22 20:33N 47°35' W 122°21'1 1.2
2017-Feb-22 19:33N 47°34' W 122°21'0 0.0
2017-Feb-22 18:33N 47°34' W 122°21'0 0.0
2017-Feb-22 17:33N 47°34' W 122°21'0 0.0
2017-Feb-22 16:33N 47°34' W 122°21'0 0.0
2017-Feb-22 15:33N 47°34' W 122°21'0 0.0
2017-Feb-22 14:33N 47°34' W 122°21'0 0.0
2017-Feb-22 13:34N 47°34' W 122°21'0 0.0
2017-Feb-22 12:33N 47°34' W 122°21'0 0.0
2017-Feb-22 11:33N 47°34' W 122°21'0 0.0
2017-Feb-22 10:34N 47°34' W 122°21'0 0.0
2017-Feb-22 09:33N 47°34' W 122°21'0 0.0
2017-Feb-22 08:34N 47°34' W 122°21'0 0.0
2017-Feb-22 07:33N 47°34' W 122°21'2 1.8
2017-Feb-22 06:33N 47°36' W 122°22'3 2.8
2017-Feb-22 05:33N 47°35' W 122°26'5 5.4
2017-Feb-22 04:33N 47°29' W 122°24'5 5.4
2017-Feb-22 03:33N 47°24' W 122°21'5 4.6
2017-Feb-22 02:33N 47°20' W 122°25'4 4.2
2017-Feb-22 01:34N 47°19' W 122°30'5 4.6
2017-Feb-22 00:33N 47°15' W 122°34'10 0.6
2017-Feb-21 07:18N 47°11' W 122°48'1 1.9
2017-Feb-21 06:33N 47°10' W 122°47'7 5.7
2017-Feb-21 05:20N 47°12' W 122°37'6 7.5
2017-Feb-21 04:33N 47°17' W 122°33'7 6.7
2017-Feb-21 03:33N 47°24' W 122°32'6 6.3
2017-Feb-21 02:33N 47°30' W 122°30'6 6.3
2017-Feb-21 01:33N 47°35' W 122°25'4 3.7
2017-Feb-21 00:33N 47°33' W 122°21'0 0.0
2017-Feb-20 23:33N 47°33' W 122°21'0 0.0
2017-Feb-20 22:34N 47°33' W 122°21'0 0.0
2017-Feb-20 21:33N 47°33' W 122°21'0 0.0
2017-Feb-20 20:33N 47°33' W 122°21'0 0.0
2017-Feb-20 19:33N 47°33' W 122°21'0 0.0
2017-Feb-20 18:33N 47°33' W 122°21'0 0.0
2017-Feb-20 17:33N 47°33' W 122°21'0 0.0
2017-Feb-20 16:33N 47°33' W 122°21'2 1.7
2017-Feb-20 15:33N 47°35' W 122°22'5 5.2
2017-Feb-20 14:33N 47°32' W 122°28'8 8.1
2017-Feb-20 13:33N 47°24' W 122°32'8 8.0
2017-Feb-20 12:33N 47°16' W 122°33'  
2017-Feb-17 13:33N 47°12' W 122°37'7 7.5
2017-Feb-17 12:33N 47°20' W 122°33'6 6.4
2017-Feb-17 11:33N 47°22' W 122°24'5 5.5
2017-Feb-17 10:33N 47°27' W 122°25'6 6.4
2017-Feb-17 09:33N 47°34' W 122°27'6 6.1
2017-Feb-17 08:33N 47°40' W 122°28'5 5.5
2017-Feb-17 07:34N 47°45' W 122°26'6 6.1
2017-Feb-17 06:33N 47°51' W 122°24'7 7.2
2017-Feb-17 05:33N 47°57' W 122°19'6 5.8
2017-Feb-17 04:28N 48°01' W 122°11'0 0.0
2017-Feb-17 01:26N 48°01' W 122°11'0 0.0
2017-Feb-17 00:33N 48°01' W 122°11'0 0.0
2017-Feb-16 23:32N 48°01' W 122°11'0 0.0
2017-Feb-16 22:33N 48°01' W 122°11'0 0.0
2017-Feb-16 21:32N 48°01' W 122°11'0 0.0
2017-Feb-16 20:33N 48°01' W 122°11'0 0.0
2017-Feb-16 19:33N 48°01' W 122°11'0 0.0
2017-Feb-16 18:14N 48°01' W 122°11'0 0.0
2017-Feb-16 17:14N 48°01' W 122°11'0 0.1
2017-Feb-16 16:33N 48°01' W 122°11'4 3.9
2017-Feb-16 15:33N 47°58' W 122°16'3 3.2
2017-Feb-16 14:33N 47°57' W 122°20'5 5.1
2017-Feb-16 13:33N 47°52' W 122°22'6 6.1
2017-Feb-16 12:33N 47°47' W 122°26'7 7.0
2017-Feb-16 11:33N 47°40' W 122°27'7 7.3
2017-Feb-16 10:33N 47°32' W 122°27'8 8.0
2017-Feb-16 09:33N 47°25' W 122°32'9 8.7
2017-Feb-16 08:33N 47°16' W 122°33'  

Dump ship's entire track history